Time;durP1;ratioP1;P1;durP2;ratioP2;P2;SDS_P1;SDS_P2;PMS_P1;PMS_P2;Temp;Humidity;BMP_temperature;BMP_pressure;BME280_temperature;BME280_humidity;BME280_pressure;Samples;Min_cycle;Max_cycle;Signal;HPM_P1;HPM_P2
2023/04/10 03:27:56;;;;;;;25.73;11.57;;;;;;;;;;6203799;22;20219;-92
2023/04/10 03:31:01;;;;;;;26.43;12.13;;;;;;;;;;6211189;23;20163;-93
2023/04/10 03:34:10;;;;;;;25.17;11.77;;;;;;;;;;6212041;23;20247;-94
2023/04/10 03:37:15;;;;;;;23.10;11.50;;;;;;;;;;6210842;23;20179;-92
2023/04/10 03:40:20;;;;;;;21.00;10.77;;;;;;;;;;6213601;23;20170;-94
2023/04/10 03:43:27;;;;;;;21.27;10.57;;;;;;;;;;6211727;23;20175;-92
2023/04/10 03:46:32;;;;;;;24.93;12.07;;;;;;;;;;6212053;23;20159;-92
2023/04/10 03:50:08;;;;;;;28.83;12.33;;;;;;;;;;6214927;23;20171;-95
2023/04/10 03:53:23;;;;;;;30.20;13.67;;;;;;;;;;6214297;23;20147;-93
2023/04/10 03:56:30;;;;;;;28.23;12.63;;;;;;;;;;6213086;23;20162;-93
2023/04/10 03:59:38;;;;;;;22.60;11.47;;;;;;;;;;6211787;23;20171;-94
2023/04/10 04:07:06;;;;;;;24.00;10.97;;;;;;;;;;6232441;23;20154;-93
2023/04/10 04:10:29;;;;;;;24.57;11.60;;;;;;;;;;6213217;23;20219;-92
2023/04/10 04:14:01;;;;;;;24.30;11.43;;;;;;;;;;6213140;23;20171;-92
2023/04/10 04:17:27;;;;;;;23.73;11.07;;;;;;;;;;6213381;23;20175;-95
2023/04/10 04:20:42;;;;;;;30.60;12.20;;;;;;;;;;6229731;23;20191;-95
2023/04/10 04:23:52;;;;;;;22.93;11.00;;;;;;;;;;6212338;23;20167;-94
2023/04/10 04:27:08;;;;;;;23.80;11.17;;;;;;;;;;6215755;23;20151;-91
2023/04/10 04:30:37;;;;;;;24.57;10.70;;;;;;;;;;6204396;23;20166;-93
2023/04/10 04:34:00;;;;;;;24.00;10.93;;;;;;;;;;6212759;23;20295;-92
2023/04/10 04:37:19;;;;;;;26.03;11.63;;;;;;;;;;6211877;23;20254;-93
2023/04/10 04:40:42;;;;;;;24.47;10.40;;;;;;;;;;6213099;23;20199;-93
2023/04/10 04:44:13;;;;;;;27.53;11.10;;;;;;;;;;6230775;23;20163;-93
2023/04/10 04:47:31;;;;;;;26.47;12.57;;;;;;;;;;6211365;23;20147;-93
2023/04/10 04:50:59;;;;;;;27.90;12.33;;;;;;;;;;6213166;23;20224;-93
2023/04/10 04:54:23;;;;;;;37.80;14.03;;;;;;;;;;6216270;23;20159;-93
2023/04/10 04:57:44;;;;;;;30.70;13.57;;;;;;;;;;6215281;23;20172;-92
2023/04/10 05:01:09;;;;;;;32.07;13.03;;;;;;;;;;6234584;23;20179;-93
2023/04/10 05:04:33;;;;;;;28.83;13.17;;;;;;;;;;6216512;23;20163;-93
2023/04/10 05:08:06;;;;;;;28.03;12.90;;;;;;;;;;6218056;23;20676;-92
2023/04/10 05:11:32;;;;;;;30.00;13.50;;;;;;;;;;6234532;23;20171;-94
2023/04/10 05:15:14;;;;;;;33.23;13.70;;;;;;;;;;6118017;23;20254;-92
2023/04/10 05:18:31;;;;;;;31.30;13.50;;;;;;;;;;6215435;23;20187;-92
2023/04/10 05:26:20;;;;;;;32.37;13.77;;;;;;;;;;6207900;23;20190;-93
2023/04/10 05:29:30;;;;;;;34.27;15.20;;;;;;;;;;6217129;23;20167;-92
2023/04/10 05:32:56;;;;;;;41.13;15.80;;;;;;;;;;6215735;23;20147;-93
2023/04/10 05:36:13;;;;;;;37.00;15.63;;;;;;;;;;6235811;23;20167;-93
2023/04/10 05:39:31;;;;;;;40.73;13.57;;;;;;;;;;6214391;23;20168;-92
2023/04/10 05:42:51;;;;;;;31.23;14.27;;;;;;;;;;6215332;23;20151;-93
2023/04/10 05:46:03;;;;;;;34.37;14.17;;;;;;;;;;6216646;23;20243;-91
2023/04/10 05:53:42;;;;;;;32.30;14.40;;;;;;;;;;6234928;23;20154;-92
2023/04/10 05:57:19;;;;;;;31.77;14.47;;;;;;;;;;6215108;23;20166;-92
2023/04/10 06:00:41;;;;;;;35.87;14.50;;;;;;;;;;6214261;23;20199;-93
2023/04/10 06:04:17;;;;;;;36.50;15.53;;;;;;;;;;6213205;23;20146;-93
2023/04/10 06:07:23;;;;;;;31.63;14.20;;;;;;;;;;6212840;23;20167;-92
2023/04/10 06:10:29;;;;;;;32.90;15.37;;;;;;;;;;6211879;23;20295;-92
2023/04/10 06:13:35;;;;;;;32.87;14.57;;;;;;;;;;6212348;23;20179;-93
2023/04/10 06:16:42;;;;;;;36.00;15.27;;;;;;;;;;6213100;23;20151;-94
2023/04/10 06:19:47;;;;;;;35.30;15.67;;;;;;;;;;6214079;23;20151;-92
2023/04/10 06:22:59;;;;;;;37.97;16.80;;;;;;;;;;6213185;23;20183;-91
2023/04/10 06:26:04;;;;;;;37.87;15.87;;;;;;;;;;6211991;23;20190;-92
2023/04/10 06:29:10;;;;;;;37.03;15.87;;;;;;;;;;6213417;23;20211;-93
2023/04/10 06:32:17;;;;;;;37.40;17.33;;;;;;;;;;6213686;23;20162;-93
2023/04/10 06:35:22;;;;;;;38.03;17.33;;;;;;;;;;6210663;23;20151;-93
2023/04/10 06:38:28;;;;;;;38.07;16.90;;;;;;;;;;6211597;23;20167;-92
2023/04/10 06:41:33;;;;;;;34.00;16.43;;;;;;;;;;6211846;23;20191;-93
2023/04/10 06:44:54;;;;;;;35.70;15.93;;;;;;;;;;6211967;23;20154;-93
2023/04/10 06:48:00;;;;;;;33.83;16.03;;;;;;;;;;6210724;23;20172;-93
2023/04/10 06:51:05;;;;;;;30.00;14.40;;;;;;;;;;6213131;23;20151;-94
2023/04/10 06:54:10;;;;;;;29.08;14.35;;;;;;;;;;6213744;23;20167;-93
2023/04/10 06:57:16;;;;;;;28.48;13.60;;;;;;;;;;6210932;23;20167;-93
2023/04/10 07:00:21;;;;;;;28.90;14.50;;;;;;;;;;6211869;23;20163;-92
2023/04/10 07:03:28;;;;;;;28.65;14.65;;;;;;;;;;6211220;23;20167;-92
2023/04/10 07:06:33;;;;;;;31.73;14.88;;;;;;;;;;6213701;23;20158;-94
2023/04/10 07:09:39;;;;;;;28.45;14.32;;;;;;;;;;6213522;23;20170;-92
2023/04/10 07:12:44;;;;;;;29.17;14.60;;;;;;;;;;6211621;23;20602;-92
2023/04/10 07:15:50;;;;;;;27.95;14.15;;;;;;;;;;6211687;23;20591;-93
2023/04/10 07:18:56;;;;;;;28.45;14.32;;;;;;;;;;6211447;23;20162;-92
2023/04/10 07:26:21;;;;;;;26.65;13.93;;;;;;;;;;6232074;23;20154;-92
2023/04/10 07:29:27;;;;;;;28.45;14.90;;;;;;;;;;6214168;23;20212;-91
2023/04/10 07:32:33;;;;;;;24.05;13.43;;;;;;;;;;6215493;23;20171;-92
2023/04/10 07:35:39;;;;;;;24.05;12.63;;;;;;;;;;6215756;23;20689;-92
2023/04/10 07:38:45;;;;;;;22.67;13.05;;;;;;;;;;6215255;23;20231;-92
2023/04/10 07:41:50;;;;;;;22.25;13.00;;;;;;;;;;6215595;23;20202;-93
2023/04/10 07:44:56;;;;;;;22.45;12.73;;;;;;;;;;6215541;23;20167;-92
2023/04/10 07:48:11;;;;;;;21.77;12.25;;;;;;;;;;6214215;23;20150;-93
2023/04/10 07:51:17;;;;;;;22.42;13.20;;;;;;;;;;6214864;23;20171;-91
2023/04/10 07:54:22;;;;;;;21.58;12.40;;;;;;;;;;6215264;23;20170;-93
2023/04/10 07:57:28;;;;;;;18.27;11.68;;;;;;;;;;6214153;23;20146;-90
2023/04/10 08:00:33;;;;;;;20.95;11.57;;;;;;;;;;6213954;23;20223;-92
2023/04/10 08:03:40;;;;;;;19.23;12.25;;;;;;;;;;6214730;23;20191;-93
2023/04/10 08:06:48;;;;;;;17.15;10.93;;;;;;;;;;6215422;23;20163;-93
2023/04/10 08:09:53;;;;;;;19.55;11.48;;;;;;;;;;6215282;23;20162;-92
2023/04/10 08:12:58;;;;;;;19.05;12.73;;;;;;;;;;6214199;23;20170;-92
2023/04/10 08:16:41;;;;;;;25.45;12.38;;;;;;;;;;6212424;23;20170;-89
2023/04/10 08:20:15;;;;;;;19.15;11.75;;;;;;;;;;6215889;23;20171;-92
2023/04/10 08:23:49;;;;;;;19.65;12.25;;;;;;;;;;6214083;23;20187;-92
2023/04/10 08:26:56;;;;;;;20.40;12.32;;;;;;;;;;6214132;23;20147;-92
2023/04/10 08:34:23;;;;;;;19.27;11.48;;;;;;;;;;6230599;23;20244;-92
2023/04/10 08:37:28;;;;;;;20.50;12.35;;;;;;;;;;6213356;23;20171;-94
2023/04/10 08:44:59;;;;;;;20.52;12.75;;;;;;;;;;6231700;23;20175;-91
2023/04/10 08:48:43;;;;;;;21.55;12.77;;;;;;;;;;6215595;23;20187;-93
2023/04/10 08:51:56;;;;;;;23.83;13.85;;;;;;;;;;6213721;23;20163;-92
2023/04/10 08:55:07;;;;;;;22.85;13.43;;;;;;;;;;6211077;23;20219;-92
2023/04/10 08:58:14;;;;;;;21.45;12.75;;;;;;;;;;6211135;23;20175;-90
2023/04/10 09:01:26;;;;;;;24.25;13.75;;;;;;;;;;6213623;23;20195;-93
2023/04/10 09:04:33;;;;;;;22.27;12.65;;;;;;;;;;6212865;23;20220;-93
2023/04/10 09:07:41;;;;;;;23.50;12.50;;;;;;;;;;6229358;23;20155;-90
2023/04/10 09:10:49;;;;;;;24.20;13.98;;;;;;;;;;6211473;23;20172;-90
2023/04/10 09:13:57;;;;;;;24.10;13.60;;;;;;;;;;6212659;23;20158;-89
2023/04/10 09:17:29;;;;;;;22.40;12.30;;;;;;;;;;6212964;23;20175;-90
2023/04/10 09:21:10;;;;;;;21.30;12.63;;;;;;;;;;6214304;23;20159;-90
2023/04/10 09:24:20;;;;;;;24.98;12.70;;;;;;;;;;6212687;23;20168;-92
2023/04/10 09:27:33;;;;;;;26.85;12.88;;;;;;;;;;6212760;23;20219;-94
2023/04/10 09:30:42;;;;;;;21.95;13.10;;;;;;;;;;6211383;23;20211;-90
2023/04/10 09:34:06;;;;;;;21.17;12.80;;;;;;;;;;6210647;23;20163;-92
2023/04/10 09:37:11;;;;;;;21.25;13.00;;;;;;;;;;6212873;23;20163;-92
2023/04/10 09:40:28;;;;;;;20.23;11.98;;;;;;;;;;6214847;23;20174;-91
2023/04/10 09:43:35;;;;;;;22.38;13.35;;;;;;;;;;6213346;23;20162;-88
2023/04/10 09:46:40;;;;;;;19.60;11.50;;;;;;;;;;6212149;23;20171;-91
2023/04/10 09:49:47;;;;;;;17.83;11.48;;;;;;;;;;6212749;23;20213;-89
2023/04/10 09:52:58;;;;;;;20.38;11.70;;;;;;;;;;6213291;23;20209;-94
2023/04/10 09:56:08;;;;;;;22.90;13.63;;;;;;;;;;6214433;23;20230;-90
2023/04/10 09:59:14;;;;;;;22.13;12.82;;;;;;;;;;6212270;23;20160;-90
2023/04/10 10:02:20;;;;;;;23.38;13.15;;;;;;;;;;6212081;23;20214;-91
2023/04/10 10:05:30;;;;;;;22.17;12.95;;;;;;;;;;6211545;23;20211;-91
2023/04/10 10:08:36;;;;;;;25.77;13.93;;;;;;;;;;6213164;23;20163;-92
2023/04/10 10:11:42;;;;;;;23.60;12.45;;;;;;;;;;6211679;23;20167;-92
2023/04/10 10:14:55;;;;;;;26.88;13.60;;;;;;;;;;6212157;23;20218;-89
2023/04/10 10:18:04;;;;;;;24.65;12.27;;;;;;;;;;6210190;23;20176;-89
2023/04/10 10:21:35;;;;;;;23.30;11.15;;;;;;;;;;6209940;23;20218;-91
2023/04/10 10:24:47;;;;;;;22.42;11.52;;;;;;;;;;6212746;23;20223;-91
2023/04/10 10:27:56;;;;;;;21.48;10.88;;;;;;;;;;6210826;23;20167;-90
2023/04/10 10:31:04;;;;;;;19.08;10.20;;;;;;;;;;6210491;23;20202;-92
2023/04/10 10:34:13;;;;;;;17.13;8.77;;;;;;;;;;6210667;23;20167;-90
2023/04/10 10:37:19;;;;;;;14.85;7.70;;;;;;;;;;6212108;23;20630;-93
2023/04/10 10:40:38;;;;;;;16.98;7.63;;;;;;;;;;6219633;23;20170;-92
2023/04/10 10:43:50;;;;;;;16.55;8.02;;;;;;;;;;6211713;23;20171;-90
2023/04/10 10:47:00;;;;;;;14.73;7.57;;;;;;;;;;6210805;23;20248;-91
2023/04/10 10:50:06;;;;;;;13.30;7.65;;;;;;;;;;6210915;23;20200;-92
2023/04/10 10:53:33;;;;;;;14.27;7.40;;;;;;;;;;6210393;23;20166;-90
2023/04/10 10:56:40;;;;;;;13.55;7.47;;;;;;;;;;6209675;23;20182;-91
2023/04/10 10:59:58;;;;;;;15.23;7.85;;;;;;;;;;6213752;23;20159;-90
2023/04/10 11:03:32;;;;;;;16.85;8.35;;;;;;;;;;6211365;23;20242;-93
2023/04/10 11:06:51;;;;;;;15.02;8.63;;;;;;;;;;6183111;23;20187;-91
2023/04/10 11:09:58;;;;;;;17.90;8.95;;;;;;;;;;6212831;23;20174;-94
2023/04/10 11:13:19;;;;;;;15.63;8.73;;;;;;;;;;6211974;23;20186;-91
2023/04/10 11:16:42;;;;;;;14.43;8.38;;;;;;;;;;6212738;23;20184;-92
2023/04/10 11:20:00;;;;;;;14.27;8.43;;;;;;;;;;6210784;23;20171;-92
2023/04/10 11:23:33;;;;;;;14.90;8.45;;;;;;;;;;6211095;23;20187;-94
2023/04/10 11:26:40;;;;;;;12.35;7.63;;;;;;;;;;6211337;23;20242;-92
2023/04/10 11:29:45;;;;;;;14.63;7.80;;;;;;;;;;6210488;23;20489;-94
2023/04/10 11:32:52;;;;;;;16.42;8.75;;;;;;;;;;6210489;23;20691;-91
2023/04/10 11:36:01;;;;;;;14.48;8.52;;;;;;;;;;6211410;23;20159;-91
2023/04/10 11:39:07;;;;;;;13.65;7.50;;;;;;;;;;6210047;23;20167;-91
2023/04/10 11:42:13;;;;;;;13.70;7.78;;;;;;;;;;6211072;23;20170;-89
2023/04/10 11:45:25;;;;;;;12.02;7.43;;;;;;;;;;6212193;23;20642;-93
2023/04/10 11:48:54;;;;;;;11.40;6.20;;;;;;;;;;6208359;23;20167;-90
2023/04/10 11:52:02;;;;;;;12.02;6.85;;;;;;;;;;6210776;23;20223;-93
2023/04/10 11:55:10;;;;;;;14.65;7.75;;;;;;;;;;6211144;23;20155;-90
2023/04/10 11:58:23;;;;;;;15.00;8.10;;;;;;;;;;6210472;23;20170;-90
2023/04/10 12:01:32;;;;;;;13.73;7.70;;;;;;;;;;6211675;23;20244;-90
2023/04/10 12:04:39;;;;;;;8.98;5.50;;;;;;;;;;6210204;23;20175;-92
2023/04/10 12:07:52;;;;;;;9.52;6.10;;;;;;;;;;6213179;23;20163;-91
2023/04/10 12:10:59;;;;;;;10.45;6.32;;;;;;;;;;6212051;23;20219;-91
2023/04/10 12:14:08;;;;;;;12.65;6.25;;;;;;;;;;6210478;23;20166;-91
2023/04/10 12:17:13;;;;;;;10.98;5.72;;;;;;;;;;6210603;23;20167;-91
2023/04/10 12:20:25;;;;;;;9.95;5.70;;;;;;;;;;6210838;23;20179;-93
2023/04/10 12:23:57;;;;;;;7.65;4.72;;;;;;;;;;6211645;23;20285;-91
2023/04/10 12:27:04;;;;;;;12.32;5.32;;;;;;;;;;6211262;23;20167;-92
2023/04/10 12:30:10;;;;;;;9.70;4.63;;;;;;;;;;6211272;23;20178;-91
2023/04/10 12:33:22;;;;;;;9.15;5.18;;;;;;;;;;6210794;23;20299;-93
2023/04/10 12:36:33;;;;;;;7.75;4.38;;;;;;;;;;6212560;23;20164;-91
2023/04/10 12:39:41;;;;;;;7.47;4.35;;;;;;;;;;6211223;23;20298;-92
2023/04/10 12:42:52;;;;;;;11.82;5.70;;;;;;;;;;6213642;23;20195;-89
2023/04/10 12:45:57;;;;;;;6.50;4.40;;;;;;;;;;6213084;23;20163;-90
2023/04/10 12:49:20;;;;;;;7.15;4.18;;;;;;;;;;6212328;23;20178;-93
2023/04/10 12:52:27;;;;;;;7.10;4.10;;;;;;;;;;6212233;23;20206;-93
2023/04/10 12:55:37;;;;;;;9.27;4.72;;;;;;;;;;6212471;23;20496;-92
2023/04/10 12:59:11;;;;;;;10.98;5.72;;;;;;;;;;6216141;23;20171;-93
2023/04/10 13:02:20;;;;;;;9.88;5.78;;;;;;;;;;6214213;23;20186;-93
2023/04/10 13:05:31;;;;;;;8.13;4.57;;;;;;;;;;6213347;23;20212;-93
2023/04/10 13:08:38;;;;;;;8.70;4.30;;;;;;;;;;6213132;23;20263;-91
2023/04/10 13:11:46;;;;;;;6.72;4.20;;;;;;;;;;6213039;23;20167;-92
2023/04/10 13:15:29;;;;;;;8.13;5.05;;;;;;;;;;6216510;23;20175;-90
2023/04/10 13:18:40;;;;;;;7.70;4.30;;;;;;;;;;6216148;23;20226;-91
2023/04/10 13:25:39;;;;;;;6.05;4.03;;;;;;;;;;6214483;23;20211;-93
2023/04/10 13:28:47;;;;;;;7.30;4.40;;;;;;;;;;6215501;23;20163;-92
2023/04/10 13:31:53;;;;;;;8.10;4.30;;;;;;;;;;6216534;23;20162;-93
2023/04/10 13:35:01;;;;;;;7.90;4.40;;;;;;;;;;6213679;23;20166;-91
2023/04/10 13:38:10;;;;;;;6.47;4.00;;;;;;;;;;6213317;23;20167;-93
2023/04/10 13:41:15;;;;;;;7.60;4.57;;;;;;;;;;6212604;23;20168;-93
2023/04/10 13:44:24;;;;;;;7.60;4.63;;;;;;;;;;6214012;23;20174;-91
2023/04/10 13:47:29;;;;;;;7.80;4.53;;;;;;;;;;6214975;23;20202;-91
2023/04/10 13:50:37;;;;;;;6.78;4.05;;;;;;;;;;6212111;23;20175;-92
2023/04/10 13:53:44;;;;;;;6.45;3.95;;;;;;;;;;6212375;23;20151;-92
2023/04/10 13:56:49;;;;;;;6.68;4.40;;;;;;;;;;6212026;23;20166;-93
2023/04/10 13:59:55;;;;;;;6.95;4.18;;;;;;;;;;6214533;23;20166;-93
2023/04/10 14:03:04;;;;;;;6.90;3.80;;;;;;;;;;6212632;23;20199;-94
2023/04/10 14:06:13;;;;;;;4.10;2.80;;;;;;;;;;6211988;23;20162;-95
2023/04/10 14:09:22;;;;;;;4.70;2.70;;;;;;;;;;6213879;23;20232;-94
2023/04/10 14:12:28;;;;;;;4.13;2.95;;;;;;;;;;6211142;23;20175;-93
2023/04/10 14:15:52;;;;;;;4.00;2.63;;;;;;;;;;6214182;23;20153;-92
2023/04/10 14:19:03;;;;;;;4.32;2.88;;;;;;;;;;6213825;23;20521;-92
2023/04/10 14:22:34;;;;;;;81.88;42.38;;;;;;;;;;6213238;23;20151;-90
2023/04/10 14:25:41;;;;;;;3.95;2.50;;;;;;;;;;6213273;23;20595;-94
2023/04/10 14:28:52;;;;;;;4.15;2.58;;;;;;;;;;6213933;23;20151;-90
2023/04/10 14:31:59;;;;;;;5.03;3.15;;;;;;;;;;6211988;23;20164;-92
2023/04/10 14:35:08;;;;;;;4.70;2.90;;;;;;;;;;6211347;23;20159;-95
2023/04/10 14:38:15;;;;;;;6.00;3.35;;;;;;;;;;6212316;23;20168;-92
2023/04/10 14:41:23;;;;;;;5.70;3.17;;;;;;;;;;6210327;23;20290;-91
2023/04/10 14:44:30;;;;;;;5.10;3.28;;;;;;;;;;6212630;23;20203;-93
2023/04/10 14:47:38;;;;;;;7.20;3.38;;;;;;;;;;6212081;23;20300;-94
2023/04/10 14:50:45;;;;;;;5.07;3.38;;;;;;;;;;6216103;23;20269;-92
2023/04/10 14:53:54;;;;;;;4.10;2.85;;;;;;;;;;6213064;23;20602;-92
2023/04/10 14:57:01;;;;;;;5.25;3.10;;;;;;;;;;6211318;23;20247;-93
2023/04/10 15:00:11;;;;;;;6.22;3.38;;;;;;;;;;6210708;23;20151;-91
2023/04/10 15:03:18;;;;;;;5.00;2.92;;;;;;;;;;6210760;23;20191;-93
2023/04/10 15:06:38;;;;;;;8.05;3.65;;;;;;;;;;6213622;23;20147;-91
2023/04/10 15:09:47;;;;;;;5.78;3.08;;;;;;;;;;6214233;23;20215;-95
2023/04/10 15:12:55;;;;;;;5.40;2.75;;;;;;;;;;6214020;23;20171;-92
2023/04/10 15:16:02;;;;;;;5.35;3.55;;;;;;;;;;6214123;23;20226;-91
2023/04/10 15:19:10;;;;;;;5.60;3.10;;;;;;;;;;6213758;23;20151;-91
2023/04/10 15:22:44;;;;;;;6.88;3.88;;;;;;;;;;6213170;23;20166;-90
2023/04/10 15:25:52;;;;;;;7.63;3.70;;;;;;;;;;6211517;23;20166;-91
2023/04/10 15:29:00;;;;;;;6.97;4.22;;;;;;;;;;6212859;23;20171;-93
2023/04/10 15:32:07;;;;;;;8.32;4.13;;;;;;;;;;6211738;23;20250;-92
2023/04/10 15:35:16;;;;;;;7.10;4.00;;;;;;;;;;6212256;23;20175;-92
2023/04/10 15:38:24;;;;;;;6.50;3.47;;;;;;;;;;6210486;23;20265;-93
2023/04/10 15:41:34;;;;;;;6.85;3.95;;;;;;;;;;6211984;23;20166;-90
2023/04/10 15:44:41;;;;;;;7.85;3.90;;;;;;;;;;6212731;23;20190;-92
2023/04/10 15:47:47;;;;;;;8.20;4.50;;;;;;;;;;6211464;23;20263;-92
2023/04/10 15:50:54;;;;;;;7.70;4.40;;;;;;;;;;6212502;23;20168;-92
2023/04/10 15:54:04;;;;;;;8.23;4.70;;;;;;;;;;6212305;23;20453;-92
2023/04/10 15:57:12;;;;;;;7.38;4.10;;;;;;;;;;6212033;23;20179;-91
2023/04/10 16:00:17;;;;;;;8.10;4.30;;;;;;;;;;6211976;23;20171;-92
2023/04/10 16:03:25;;;;;;;8.55;4.35;;;;;;;;;;6212663;23;20186;-93
2023/04/10 16:06:30;;;;;;;6.93;4.47;;;;;;;;;;6213316;23;20610;-90
2023/04/10 16:09:38;;;;;;;8.52;4.20;;;;;;;;;;6212667;23;20166;-91
2023/04/10 16:12:51;;;;;;;7.00;3.92;;;;;;;;;;6212337;23;20171;-89
2023/04/10 16:15:56;;;;;;;7.72;4.15;;;;;;;;;;6211343;23;20167;-94
2023/04/10 16:19:02;;;;;;;10.65;4.13;;;;;;;;;;6212387;23;20199;-91
2023/04/10 16:22:35;;;;;;;8.60;4.10;;;;;;;;;;6210549;23;20566;-93
2023/04/10 16:25:41;;;;;;;8.07;4.28;;;;;;;;;;6211455;23;20175;-91
2023/04/10 16:28:48;;;;;;;7.50;3.80;;;;;;;;;;6210496;23;20199;-91
2023/04/10 16:31:53;;;;;;;6.55;3.70;;;;;;;;;;6211436;23;20187;-88
2023/04/10 16:34:58;;;;;;;7.00;3.63;;;;;;;;;;6210463;23;20227;-89
2023/04/10 16:38:04;;;;;;;8.77;3.97;;;;;;;;;;6208719;23;20267;-91
2023/04/10 16:41:09;;;;;;;7.32;4.30;;;;;;;;;;6208154;23;20171;-90
2023/04/10 16:44:15;;;;;;;9.32;4.70;;;;;;;;;;6208876;23;20210;-90
2023/04/10 16:47:21;;;;;;;10.23;4.55;;;;;;;;;;6209274;23;20432;-90
2023/04/10 16:50:27;;;;;;;8.85;5.18;;;;;;;;;;6210630;23;20174;-92
2023/04/10 16:53:34;;;;;;;8.30;4.40;;;;;;;;;;6213284;23;20171;-92
2023/04/10 16:56:40;;;;;;;9.55;4.78;;;;;;;;;;6211532;23;20170;-91
2023/04/10 16:59:46;;;;;;;6.60;3.92;;;;;;;;;;6212585;23;20219;-90
2023/04/10 17:02:52;;;;;;;9.55;4.68;;;;;;;;;;6211298;23;20215;-90
2023/04/10 17:05:57;;;;;;;9.05;4.68;;;;;;;;;;6213425;23;20155;-92
2023/04/10 17:09:04;;;;;;;13.38;4.78;;;;;;;;;;6211472;23;20238;-89
2023/04/10 17:12:09;;;;;;;7.32;4.00;;;;;;;;;;6212317;23;20214;-91
2023/04/10 17:15:16;;;;;;;7.70;4.20;;;;;;;;;;6212161;23;20210;-92
2023/04/10 17:18:21;;;;;;;10.68;4.47;;;;;;;;;;6209808;23;20666;-90
2023/04/10 17:21:27;;;;;;;9.18;4.53;;;;;;;;;;6211822;23;20158;-91
2023/04/10 17:24:33;;;;;;;9.63;5.10;;;;;;;;;;6211273;23;20535;-92
2023/04/10 17:27:38;;;;;;;10.27;5.18;;;;;;;;;;6209791;23;20223;-90
2023/04/10 17:30:47;;;;;;;11.15;4.60;;;;;;;;;;6211167;23;20170;-90
2023/04/10 17:33:52;;;;;;;7.95;4.60;;;;;;;;;;6213365;23;20179;-93
2023/04/10 17:36:57;;;;;;;9.40;4.80;;;;;;;;;;6213601;23;20207;-89
2023/04/10 17:40:03;;;;;;;8.23;4.68;;;;;;;;;;6214149;23;20175;-91
2023/04/10 17:43:09;;;;;;;7.55;4.43;;;;;;;;;;6213395;23;20167;-91
2023/04/10 17:46:16;;;;;;;8.68;5.25;;;;;;;;;;6212361;23;20187;-90
2023/04/10 17:49:21;;;;;;;9.27;5.57;;;;;;;;;;6228639;23;20257;-91
2023/04/10 17:52:26;;;;;;;12.38;6.82;;;;;;;;;;6213774;23;20302;-91
2023/04/10 17:55:32;;;;;;;7.90;4.15;;;;;;;;;;6213805;23;20236;-93
2023/04/10 17:58:37;;;;;;;7.88;4.50;;;;;;;;;;6213843;23;20163;-90
2023/04/10 18:01:44;;;;;;;7.55;4.22;;;;;;;;;;6212261;23;20198;-90
2023/04/10 18:04:49;;;;;;;8.40;4.18;;;;;;;;;;6212231;23;20194;-92
2023/04/10 18:07:54;;;;;;;12.75;4.43;;;;;;;;;;6213364;23;20222;-92
2023/04/10 18:14:43;;;;;;;8.20;4.22;;;;;;;;;;6213446;23;20305;-89
2023/04/10 18:17:50;;;;;;;8.95;4.50;;;;;;;;;;6213842;23;20255;-87
2023/04/10 18:21:03;;;;;;;15.90;5.45;;;;;;;;;;6215146;23;20171;-90
2023/04/10 18:24:09;;;;;;;13.48;6.53;;;;;;;;;;6214425;23;20214;-88
2023/04/10 18:27:16;;;;;;;17.55;7.25;;;;;;;;;;6213835;23;20718;-91
2023/04/10 18:30:21;;;;;;;9.95;5.10;;;;;;;;;;6215671;23;20163;-89
2023/04/10 18:33:28;;;;;;;9.75;4.72;;;;;;;;;;6214245;23;20175;-89
2023/04/10 18:36:34;;;;;;;10.68;4.68;;;;;;;;;;6214178;23;20147;-89
2023/04/10 18:39:39;;;;;;;8.68;4.50;;;;;;;;;;6214297;23;20921;-91
2023/04/10 18:42:44;;;;;;;13.27;5.82;;;;;;;;;;6215218;23;20170;-92
2023/04/10 18:45:50;;;;;;;13.00;6.05;;;;;;;;;;6213872;23;20183;-90
2023/04/10 18:48:57;;;;;;;14.73;7.40;;;;;;;;;;6229573;23;20649;-89
2023/04/10 18:52:03;;;;;;;12.98;5.78;;;;;;;;;;6212511;23;20170;-88
2023/04/10 18:55:09;;;;;;;12.55;5.93;;;;;;;;;;6213174;23;20246;-90
2023/04/10 18:58:14;;;;;;;18.00;7.35;;;;;;;;;;6213769;23;20240;-88
2023/04/10 19:01:19;;;;;;;16.00;6.07;;;;;;;;;;6213921;23;20176;-92
2023/04/10 19:04:26;;;;;;;10.48;5.03;;;;;;;;;;6213708;23;20199;-90
2023/04/10 19:07:32;;;;;;;10.32;5.65;;;;;;;;;;6211806;23;20167;-89
2023/04/10 19:10:38;;;;;;;12.88;5.72;;;;;;;;;;6213831;23;20151;-89
2023/04/10 19:13:46;;;;;;;12.02;5.68;;;;;;;;;;6217050;23;20175;-91
2023/04/10 19:16:53;;;;;;;13.77;5.97;;;;;;;;;;6218305;23;20223;-89
2023/04/10 19:19:59;;;;;;;13.70;6.22;;;;;;;;;;6217036;23;20216;-91
2023/04/10 19:26:38;;;;;;;13.40;6.20;;;;;;;;;;6215644;23;20216;-91
2023/04/10 19:29:44;;;;;;;12.73;6.07;;;;;;;;;;6214135;23;20163;-89
2023/04/10 19:32:49;;;;;;;14.15;6.70;;;;;;;;;;6212589;23;20479;-90
2023/04/10 19:35:56;;;;;;;11.52;6.18;;;;;;;;;;6211873;23;20171;-91
2023/04/10 19:39:02;;;;;;;16.35;7.03;;;;;;;;;;6210865;23;20226;-91
2023/04/10 19:42:08;;;;;;;14.70;6.68;;;;;;;;;;6211499;23;20171;-93
2023/04/10 19:45:13;;;;;;;13.57;7.20;;;;;;;;;;6210717;23;20674;-87
2023/04/10 19:48:26;;;;;;;14.98;6.45;;;;;;;;;;6208822;23;20190;-91
2023/04/10 19:51:34;;;;;;;12.48;5.90;;;;;;;;;;6210311;23;20661;-91
2023/04/10 19:54:39;;;;;;;14.90;6.82;;;;;;;;;;6211171;23;20210;-89
2023/04/10 19:57:44;;;;;;;13.60;6.68;;;;;;;;;;6213070;23;20167;-93
2023/04/10 20:01:04;;;;;;;40.95;16.23;;;;;;;;;;6213972;23;20265;-92
2023/04/10 20:04:09;;;;;;;30.23;11.43;;;;;;;;;;6215069;23;20186;-90
2023/04/10 20:07:16;;;;;;;21.23;8.55;;;;;;;;;;6213411;23;20167;-90
2023/04/10 20:10:21;;;;;;;10.98;6.05;;;;;;;;;;6213592;23;20182;-89
2023/04/10 20:13:27;;;;;;;13.77;5.57;;;;;;;;;;6211736;23;20175;-90
2023/04/10 20:16:33;;;;;;;12.45;6.20;;;;;;;;;;6212536;23;20517;-89
2023/04/10 20:19:38;;;;;;;12.13;6.13;;;;;;;;;;6212408;23;20275;-90
2023/04/10 20:23:12;;;;;;;11.77;5.53;;;;;;;;;;6211320;23;20162;-91
2023/04/10 20:26:18;;;;;;;12.40;6.30;;;;;;;;;;6214750;23;20191;-90
2023/04/10 20:29:23;;;;;;;13.40;6.38;;;;;;;;;;6213509;23;20163;-89
2023/04/10 20:32:30;;;;;;;12.30;5.70;;;;;;;;;;6214398;23;20171;-90
2023/04/10 20:35:35;;;;;;;21.27;10.45;;;;;;;;;;6213447;23;20187;-91
2023/04/10 20:38:42;;;;;;;11.88;6.38;;;;;;;;;;6217381;23;20175;-93
2023/04/10 20:41:49;;;;;;;13.30;6.30;;;;;;;;;;6214792;23;20167;-93
2023/04/10 20:44:56;;;;;;;14.73;6.85;;;;;;;;;;6213526;23;20193;-93
2023/04/10 20:48:03;;;;;;;12.83;6.53;;;;;;;;;;6214049;23;20207;-93
2023/04/10 20:51:09;;;;;;;15.48;6.38;;;;;;;;;;6213908;23;20163;-93
2023/04/10 20:54:17;;;;;;;15.50;7.57;;;;;;;;;;6215352;23;20163;-91
2023/04/10 20:57:24;;;;;;;14.67;6.47;;;;;;;;;;6213737;23;20171;-92
2023/04/10 21:00:30;;;;;;;17.87;7.00;;;;;;;;;;6214509;23;20167;-93
2023/04/10 21:03:37;;;;;;;15.23;6.50;;;;;;;;;;6215202;23;20164;-93
2023/04/10 21:06:42;;;;;;;16.70;7.37;;;;;;;;;;6212776;23;20178;-93
2023/04/10 21:09:47;;;;;;;13.27;6.37;;;;;;;;;;6213648;23;20162;-93
2023/04/10 21:12:54;;;;;;;14.10;6.67;;;;;;;;;;6211294;23;20541;-94
2023/04/10 21:15:59;;;;;;;15.67;6.77;;;;;;;;;;6213544;23;20171;-93
2023/04/10 21:19:05;;;;;;;14.87;6.97;;;;;;;;;;6214813;23;20195;-94
2023/04/10 21:22:16;;;;;;;14.77;7.40;;;;;;;;;;6214477;23;20167;-93
2023/04/10 21:25:22;;;;;;;14.60;6.50;;;;;;;;;;6212456;23;20199;-92
2023/04/10 21:28:29;;;;;;;14.70;7.07;;;;;;;;;;6212301;23;20279;-92
2023/04/10 21:31:34;;;;;;;13.23;7.00;;;;;;;;;;6211447;23;20207;-91
2023/04/10 21:34:39;;;;;;;13.23;6.60;;;;;;;;;;6212540;23;20215;-92
2023/04/10 21:37:44;;;;;;;14.23;7.30;;;;;;;;;;6212429;23;20167;-93
2023/04/10 21:40:52;;;;;;;17.90;7.17;;;;;;;;;;6213854;23;20255;-92
2023/04/10 21:43:59;;;;;;;15.30;7.23;;;;;;;;;;6212850;23;20163;-92
2023/04/10 21:47:05;;;;;;;16.67;7.83;;;;;;;;;;6212307;23;20760;-94
2023/04/10 21:50:10;;;;;;;15.23;7.30;;;;;;;;;;6213753;23;20170;-91
2023/04/10 21:53:16;;;;;;;20.43;8.40;;;;;;;;;;6213667;23;20156;-89
2023/04/10 21:56:22;;;;;;;16.87;7.67;;;;;;;;;;6212311;23;20258;-92
2023/04/10 21:59:30;;;;;;;17.47;8.20;;;;;;;;;;6215413;23;20151;-93
2023/04/10 22:02:40;;;;;;;15.30;7.37;;;;;;;;;;6214317;23;20210;-93
2023/04/10 22:05:47;;;;;;;15.13;7.87;;;;;;;;;;6213117;23;20214;-90
2023/04/10 22:08:52;;;;;;;19.53;8.20;;;;;;;;;;6212686;23;20167;-91
2023/04/10 22:11:58;;;;;;;18.00;7.73;;;;;;;;;;6213200;23;20168;-92
2023/04/10 22:15:06;;;;;;;16.90;7.73;;;;;;;;;;6212089;23;20166;-93
2023/04/10 22:18:11;;;;;;;15.37;6.60;;;;;;;;;;6211873;23;20163;-92
2023/04/10 22:21:32;;;;;;;13.10;6.60;;;;;;;;;;6212341;23;20242;-91
2023/04/10 22:24:37;;;;;;;16.43;7.00;;;;;;;;;;6211991;23;20162;-93
2023/04/10 22:27:42;;;;;;;15.13;6.70;;;;;;;;;;6210928;23;20179;-93
2023/04/10 22:30:48;;;;;;;16.03;7.33;;;;;;;;;;6211510;23;20167;-92
2023/04/10 22:33:53;;;;;;;14.63;6.67;;;;;;;;;;6211461;23;20171;-92
2023/04/10 22:36:58;;;;;;;15.63;6.77;;;;;;;;;;6211028;23;20175;-93
2023/04/10 22:40:04;;;;;;;13.47;7.00;;;;;;;;;;6209599;23;20190;-92
2023/04/10 22:43:09;;;;;;;15.37;7.37;;;;;;;;;;6209488;23;20179;-91
2023/04/10 22:46:16;;;;;;;13.93;7.00;;;;;;;;;;6210044;23;20227;-92